Spink Colony, South Dakota
Current Conditions -  °F | °C
As of 5:55 PM on Tuesday 25 Nov 2014 (Local Time) from KHON Reporting Station
Overcast Overcast  
Wind Chill: 27°   Ceiling: 7000
Heat Index: 35°   Visibility: 10mi
Dew Point: 26°   Wind: 12mph
Humidity: 70%   Direction: 130°SE
Pressure: 29.8"   Gusts: NA
Location:  44.7634°N, 98.2811°W
Report Text: KHON 252355Z AUTO 13010KT 10SM OVC070 02/M03 A2980 RMK AO2 SLP107 T00171033 10022 20006 58008
Loading
Personal Weather Stations






























Interactive Weather Map New forecast layout! Learn more

10-Day Weather Forecast

Advertisements
Track Severe Weather on mobile